Time;durP1;ratioP1;P1;durP2;ratioP2;P2;SDS_P1;SDS_P2;PMS_P1;PMS_P2;Temp;Humidity;BMP_temperature;BMP_pressure;BME280_temperature;BME280_humidity;BME280_pressure;Samples;Min_cycle;Max_cycle;Signal;HPM_P1;HPM_P2
2021/09/03 00:01:32;;;;;;;8.27;4.97;;;;;;;8.24;85.82;91288.22;5040944;28;20062;-89
2021/09/03 00:04:07;;;;;;;10.05;5.00;;;;;;;8.20;85.33;91285.47;5041594;28;20383;-89
2021/09/03 00:06:40;;;;;;;10.80;5.40;;;;;;;8.18;85.88;91286.84;5040486;28;20498;-90
2021/09/03 00:09:18;;;;;;;9.70;6.50;;;;;;;8.22;86.46;91291.09;5023367;28;20024;-88
2021/09/03 00:12:01;;;;;;;15.18;6.05;;;;;;;8.12;85.88;91289.56;5040690;28;20029;-90
2021/09/03 00:14:39;;;;;;;8.93;5.50;;;;;;;8.19;86.04;91283.16;5038093;28;20021;-90
2021/09/03 00:17:18;;;;;;;10.68;6.03;;;;;;;8.14;85.54;91273.69;5036879;28;20020;-90
2021/09/03 00:19:58;;;;;;;9.98;5.32;;;;;;;7.96;85.00;91278.09;5036751;28;20025;-89
2021/09/03 00:22:34;;;;;;;8.65;5.22;;;;;;;7.95;84.30;91273.19;5020954;28;20103;-90
2021/09/03 00:25:13;;;;;;;8.52;5.53;;;;;;;7.98;84.97;91275.94;5027398;28;20028;-89
2021/09/03 00:27:51;;;;;;;11.75;6.05;;;;;;;7.93;84.37;91281.28;5040360;28;20024;-88
2021/09/03 00:30:26;;;;;;;11.27;5.55;;;;;;;7.91;84.22;91283.41;5056455;28;20031;-91
2021/09/03 00:33:05;;;;;;;8.68;5.82;;;;;;;7.79;84.71;91273.63;5056391;28;20028;-90
2021/09/03 00:35:42;;;;;;;9.50;5.80;;;;;;;7.72;85.40;91272.53;5040799;28;20108;-90
2021/09/03 00:38:21;;;;;;;10.98;5.63;;;;;;;7.69;85.26;91271.31;5022932;28;20032;-89
2021/09/03 00:40:56;;;;;;;10.10;5.43;;;;;;;7.84;84.54;91272.72;5018456;28;20033;-88
2021/09/03 00:43:34;;;;;;;8.68;5.53;;;;;;;7.85;84.60;91271.66;5050476;28;20484;-90
2021/09/03 00:46:10;;;;;;;8.40;5.22;;;;;;;7.85;84.53;91272.41;5038796;28;20552;-90
2021/09/03 00:48:43;;;;;;;9.88;5.63;;;;;;;7.62;85.34;91266.53;5023480;28;20032;-90
2021/09/03 00:51:17;;;;;;;9.27;5.30;;;;;;;7.47;85.57;91258.41;5018139;28;20382;-88
2021/09/03 00:53:54;;;;;;;9.18;5.18;;;;;;;7.47;85.78;91266.97;5003845;28;20021;-90
2021/09/03 00:56:27;;;;;;;10.30;5.22;;;;;;;7.41;85.36;91252.59;5003427;28;20029;-89
2021/09/03 00:59:00;;;;;;;11.27;5.93;;;;;;;7.42;85.41;91261.91;5018555;28;20029;-90
2021/09/03 01:01:34;;;;;;;9.20;5.18;;;;;;;7.42;85.04;91261.91;5039104;28;20026;-90
2021/09/03 01:04:11;;;;;;;10.45;5.00;;;;;;;7.50;84.65;91256.00;5039168;28;20115;-90
2021/09/03 01:06:45;;;;;;;8.95;4.93;;;;;;;7.68;84.96;91256.03;5032339;28;20029;-90
2021/09/03 01:09:19;;;;;;;8.05;4.90;;;;;;;7.45;85.61;91253.53;5018789;28;20083;-89
2021/09/03 01:11:44;;;;;;;8.18;5.35;;;;;;;7.39;86.60;91254.75;5035575;28;20021;-90
2021/09/03 01:14:16;;;;;;;6.90;4.78;;;;;;;7.37;86.64;91255.03;5032142;28;20122;-89
2021/09/03 01:16:54;;;;;;;8.40;4.85;;;;;;;7.42;87.15;91260.09;5039108;28;20020;-90
2021/09/03 01:19:26;;;;;;;9.13;5.18;;;;;;;7.56;86.70;91254.81;5036527;28;20036;-91
2021/09/03 01:22:04;;;;;;;8.68;5.20;;;;;;;7.52;86.86;91256.44;5022077;28;20104;-89
2021/09/03 01:24:37;;;;;;;8.32;5.07;;;;;;;7.45;86.10;91243.16;5018369;28;20139;-90
2021/09/03 01:27:11;;;;;;;9.13;5.43;;;;;;;7.43;86.23;91251.25;5050624;28;20039;-90
2021/09/03 01:29:46;;;;;;;8.80;5.43;;;;;;;7.41;85.89;91242.22;5034884;28;20072;-90
2021/09/03 01:32:17;;;;;;;7.78;5.05;;;;;;;7.38;85.73;91242.81;5008688;28;20025;-91
2021/09/03 01:34:51;;;;;;;10.45;5.65;;;;;;;7.37;86.58;91244.66;5069558;28;20107;-90
2021/09/03 01:37:28;;;;;;;9.88;5.65;;;;;;;7.35;86.44;91243.41;5037964;28;20504;-90
2021/09/03 01:40:07;;;;;;;9.93;5.28;;;;;;;7.35;86.57;91239.00;5038718;28;20032;-89
2021/09/03 01:42:39;;;;;;;11.07;5.85;;;;;;;7.39;86.64;91231.41;5039067;28;20032;-90
2021/09/03 01:45:15;;;;;;;10.70;6.53;;;;;;;7.41;86.28;91242.22;5038434;28;20024;-90
2021/09/03 01:47:55;;;;;;;8.95;5.22;;;;;;;7.32;85.19;91244.03;5055011;28;20508;-90
2021/09/03 01:50:29;;;;;;;8.32;5.22;;;;;;;7.33;84.78;91243.72;5055466;28;20107;-90
2021/09/03 01:53:08;;;;;;;13.00;5.72;;;;;;;7.40;85.77;91238.09;5022591;28;20028;-90
2021/09/03 01:55:48;;;;;;;7.65;4.70;;;;;;;7.24;85.48;91242.16;5038738;28;20416;-90
2021/09/03 01:58:27;;;;;;;9.63;5.50;;;;;;;7.15;85.75;91236.94;5022262;28;20029;-90
2021/09/03 02:01:05;;;;;;;9.73;4.90;;;;;;;7.12;86.59;91224.56;5038858;28;20403;-90
2021/09/03 02:03:45;;;;;;;8.77;5.40;;;;;;;7.07;86.99;91228.06;5071179;28;20032;-89
2021/09/03 02:06:18;;;;;;;11.50;5.80;;;;;;;7.15;87.20;91224.00;5038675;28;20025;-90
2021/09/03 02:08:56;;;;;;;10.25;5.43;;;;;;;7.21;88.85;91227.19;5022272;28;20024;-90
2021/09/03 02:11:38;;;;;;;8.45;5.40;;;;;;;7.15;87.82;91216.97;5021794;28;20031;-90
2021/09/03 02:14:16;;;;;;;8.23;5.78;;;;;;;7.17;87.43;91217.44;5071942;28;20033;-90
2021/09/03 02:16:53;;;;;;;10.00;6.25;;;;;;;7.21;88.98;91220.22;5038732;28;20469;-89
2021/09/03 02:19:36;;;;;;;12.48;6.72;;;;;;;7.21;89.36;91216.81;5021677;28;20499;-90
2021/09/03 02:22:12;;;;;;;11.15;6.32;;;;;;;7.23;89.28;91225.06;5031212;28;20025;-90
2021/09/03 02:24:49;;;;;;;12.02;6.40;;;;;;;7.29;90.28;91221.28;5035235;28;20477;-89
2021/09/03 02:27:26;;;;;;;9.23;5.28;;;;;;;7.33;88.47;91219.63;5013764;28;20025;-90
2021/09/03 02:30:04;;;;;;;12.02;6.35;;;;;;;7.27;86.82;91218.22;5033558;28;20108;-90
2021/09/03 02:32:40;;;;;;;10.05;5.70;;;;;;;7.31;87.23;91217.31;5017336;28;20028;-90
2021/09/03 02:35:18;;;;;;;15.82;6.32;;;;;;;7.26;87.72;91221.91;5017977;28;20040;-90
2021/09/03 02:37:55;;;;;;;12.35;6.35;;;;;;;7.13;88.52;91215.72;5018696;28;20553;-90
2021/09/03 02:40:26;;;;;;;13.70;6.75;;;;;;;7.18;89.04;91213.03;5031965;28;20024;-90
2021/09/03 02:43:04;;;;;;;8.77;4.97;;;;;;;7.15;88.47;91209.19;5052061;28;20462;-90
2021/09/03 02:45:32;;;;;;;8.50;5.13;;;;;;;7.10;87.60;91209.34;5037622;28;20028;-90
2021/09/03 02:48:11;;;;;;;9.13;5.43;;;;;;;7.34;86.85;91208.19;5037221;28;20035;-89
2021/09/03 02:50:47;;;;;;;10.63;5.65;;;;;;;7.19;87.48;91207.53;5021243;28;20048;-90
2021/09/03 02:53:26;;;;;;;10.65;6.22;;;;;;;7.18;89.60;91208.59;5037004;28;20024;-90
2021/09/03 02:56:07;;;;;;;13.05;7.10;;;;;;;7.12;89.76;91214.97;5020435;28;20107;-89
2021/09/03 02:58:46;;;;;;;9.65;6.18;;;;;;;7.10;89.47;91206.75;5035271;28;20031;-90
2021/09/03 03:01:26;;;;;;;10.90;5.90;;;;;;;7.21;89.47;91204.66;5033972;28;20538;-89
2021/09/03 03:04:06;;;;;;;11.60;6.05;;;;;;;7.22;90.17;91211.34;5001698;28;20025;-90
2021/09/03 03:06:47;;;;;;;8.63;5.70;;;;;;;7.15;89.06;91206.59;5017945;28;20025;-89
2021/09/03 03:09:26;;;;;;;8.95;5.13;;;;;;;7.13;87.98;91203.53;5018264;28;20025;-91
2021/09/03 03:12:01;;;;;;;11.32;6.07;;;;;;;7.18;88.56;91197.47;5044365;28;20040;-91
2021/09/03 03:14:35;;;;;;;10.00;5.20;;;;;;;7.21;87.71;91196.09;5038733;28;20020;-92
2021/09/03 03:17:18;;;;;;;10.77;5.80;;;;;;;7.04;88.11;91197.56;5032814;28;20091;-90
2021/09/03 03:19:52;;;;;;;9.45;5.80;;;;;;;7.05;89.13;91195.75;5033162;28;20033;-90
2021/09/03 03:22:29;;;;;;;15.70;5.95;;;;;;;7.18;87.96;91195.66;5017266;28;20730;-90
2021/09/03 03:25:09;;;;;;;11.82;5.45;;;;;;;7.06;89.01;91190.25;5049938;28;20043;-90
2021/09/03 03:27:43;;;;;;;9.15;5.63;;;;;;;6.99;88.62;91189.91;5005197;28;20028;-90
2021/09/03 03:30:16;;;;;;;;;;;;;;;6.96;89.97;91180.13;5032931;28;20107;-90
2021/09/03 03:32:53;;;;;;;12.18;6.22;;;;;;;6.91;89.25;91182.88;5017139;28;19909;-90
2021/09/03 03:35:28;;;;;;;9.90;5.45;;;;;;;6.82;88.24;91175.06;5033161;28;20033;-90
2021/09/03 03:38:06;;;;;;;9.77;6.05;;;;;;;6.89;88.61;91185.00;5033897;28;20455;-90
2021/09/03 03:40:41;;;;;;;11.27;5.72;;;;;;;6.84;88.60;91182.53;5018158;28;20025;-90
2021/09/03 03:43:12;;;;;;;9.95;5.88;;;;;;;6.95;88.57;91183.81;5038461;28;20028;-90
2021/09/03 03:45:51;;;;;;;9.95;5.25;;;;;;;6.93;87.54;91180.75;5022298;28;20035;-88
2021/09/03 03:48:27;;;;;;;8.82;4.90;;;;;;;6.89;87.48;91185.00;5018435;28;20062;-90
2021/09/03 03:51:06;;;;;;;10.65;5.90;;;;;;;6.87;88.65;91187.13;5007275;28;20025;-90
2021/09/03 03:53:46;;;;;;;13.93;6.10;;;;;;;6.89;89.47;91185.00;5001281;28;20089;-90
2021/09/03 03:56:24;;;;;;;9.07;5.68;;;;;;;6.97;89.98;91180.94;5036848;28;20032;-90
2021/09/03 03:58:54;;;;;;;10.25;5.82;;;;;;;6.94;90.17;91179.69;5053389;28;20028;-90
2021/09/03 04:01:36;;;;;;;12.55;6.22;;;;;;;6.89;90.24;91179.81;5031409;28;20071;-89
2021/09/03 04:04:14;;;;;;;13.32;7.03;;;;;;;6.83;90.92;91171.41;5016437;28;20444;-90
2021/09/03 04:06:45;;;;;;;14.07;6.03;;;;;;;6.90;90.73;91176.16;5002182;28;20418;-90
2021/09/03 04:09:21;;;;;;;10.95;5.78;;;;;;;6.97;90.80;91176.50;5019900;28;20116;-89
2021/09/03 04:11:57;;;;;;;9.35;5.72;;;;;;;6.89;90.99;91169.44;5022139;28;20568;-89
2021/09/03 04:14:36;;;;;;;9.82;6.00;;;;;;;6.94;89.56;91171.91;5053166;28;20040;-90
2021/09/03 04:17:18;;;;;;;10.40;5.22;;;;;;;6.90;89.15;91176.16;5036063;28;20025;-89
2021/09/03 04:19:59;;;;;;;10.48;5.63;;;;;;;7.00;88.63;91175.16;5052541;28;20040;-90
2021/09/03 04:22:29;;;;;;;10.18;5.75;;;;;;;6.93;89.02;91175.59;5055999;23;20656;-87
2021/09/03 04:25:05;;;;;;;12.38;6.18;;;;;;;7.04;89.66;91176.84;5021032;28;20463;-87
2021/09/03 04:27:46;;;;;;;11.27;5.78;;;;;;;7.07;90.02;91181.44;5021168;28;20061;-87
2021/09/03 04:30:24;;;;;;;9.95;5.93;;;;;;;6.99;89.46;91186.56;5037726;28;20496;-87
2021/09/03 04:32:58;;;;;;;9.70;5.13;;;;;;;6.93;89.91;91176.34;5005525;28;20485;-87
2021/09/03 04:35:29;;;;;;;11.00;5.87;;;;;;;7.02;90.24;91184.13;5021596;28;20025;-87
2021/09/03 04:38:06;;;;;;;9.23;5.53;;;;;;;7.04;90.17;91184.63;5021826;28;20737;-87
2021/09/03 04:40:44;;;;;;;11.25;5.47;;;;;;;7.13;89.30;91187.97;5005441;28;20045;-87
2021/09/03 04:43:23;;;;;;;9.55;5.47;;;;;;;7.17;89.30;91177.78;5005216;28;20059;-87
2021/09/03 04:45:58;;;;;;;10.80;5.55;;;;;;;7.34;88.14;91184.84;5039144;28;20017;-87
2021/09/03 04:48:33;;;;;;;9.48;5.50;;;;;;;7.17;88.72;91186.34;5005435;28;20029;-87
2021/09/03 04:51:08;;;;;;;9.30;5.32;;;;;;;6.94;89.61;91180.44;5021806;28;20021;-87
2021/09/03 04:53:44;;;;;;;12.52;6.25;;;;;;;7.07;90.40;91178.84;5005697;28;20029;-87
2021/09/03 04:56:19;;;;;;;9.98;5.43;;;;;;;7.02;90.46;91173.78;5021640;28;20021;-85
2021/09/03 04:58:58;;;;;;;8.32;5.75;;;;;;;7.16;90.24;91186.63;5005014;28;20024;-87
2021/09/03 05:01:36;;;;;;;8.88;5.15;;;;;;;7.14;89.91;91186.19;5021703;28;20029;-87
2021/09/03 05:04:12;;;;;;;10.50;5.57;;;;;;;7.09;90.07;91184.47;5004967;28;20028;-87
2021/09/03 05:06:51;;;;;;;10.30;5.80;;;;;;;6.99;90.25;91187.31;5004483;28;20047;-90
2021/09/03 05:09:28;;;;;;;9.77;5.43;;;;;;;6.99;90.77;91182.13;5004573;28;20024;-87
2021/09/03 05:12:07;;;;;;;15.82;6.80;;;;;;;7.02;90.31;91181.53;5004807;28;20029;-87
2021/09/03 05:14:46;;;;;;;12.80;6.38;;;;;;;6.99;90.85;91194.34;5033614;28;20033;-87
2021/09/03 05:17:21;;;;;;;11.82;5.97;;;;;;;7.00;90.57;91188.09;5037672;28;20021;-88
2021/09/03 05:19:58;;;;;;;9.02;5.57;;;;;;;7.00;89.76;91191.47;5020356;28;20032;-87
2021/09/03 05:22:32;;;;;;;11.05;5.70;;;;;;;7.03;89.96;91183.09;5024721;28;20067;-87
2021/09/03 05:25:08;;;;;;;9.70;5.50;;;;;;;7.06;90.37;91195.44;5056899;28;20092;-87
2021/09/03 05:27:41;;;;;;;12.23;5.32;;;;;;;7.05;90.65;91193.91;5041660;28;20484;-87
2021/09/03 05:30:18;;;;;;;9.55;5.20;;;;;;;7.17;90.23;91194.13;5040712;28;20028;-87
2021/09/03 05:32:54;;;;;;;9.18;5.20;;;;;;;7.24;90.19;91193.66;5040489;28;20032;-86
2021/09/03 05:35:31;;;;;;;10.52;5.57;;;;;;;7.29;90.28;91190.19;5024178;28;20029;-87
2021/09/03 05:38:07;;;;;;;8.88;5.18;;;;;;;7.35;89.91;91186.38;5023765;28;20024;-86
2021/09/03 05:40:49;;;;;;;10.95;5.68;;;;;;;7.42;90.07;91186.72;5024531;28;20028;-87
2021/09/03 05:43:26;;;;;;;11.35;6.00;;;;;;;7.64;90.68;91191.81;5056005;28;20055;-86
2021/09/03 05:46:03;;;;;;;11.27;6.10;;;;;;;7.80;89.54;91192.13;5058561;28;20103;-87
2021/09/03 05:48:40;;;;;;;10.65;5.70;;;;;;;7.87;89.06;91189.84;5056995;28;20024;-86
2021/09/03 05:51:18;;;;;;;9.90;5.30;;;;;;;7.89;89.27;91181.75;5060858;28;20025;-87
2021/09/03 05:53:45;;;;;;;8.75;5.55;;;;;;;8.09;88.82;91175.97;5025682;28;20024;-86
2021/09/03 05:56:22;;;;;;;9.23;5.35;;;;;;;8.12;88.62;91174.56;5042115;28;20103;-87
2021/09/03 05:58:56;;;;;;;9.20;5.30;;;;;;;8.17;88.59;91171.84;5041958;28;20503;-86
2021/09/03 06:01:36;;;;;;;11.73;5.60;;;;;;;8.19;88.64;91171.53;5042986;28;20028;-87
2021/09/03 06:04:14;;;;;;;10.52;5.00;;;;;;;8.33;88.45;91179.91;5048386;28;20028;-88
2021/09/03 06:06:50;;;;;;;8.63;5.03;;;;;;;8.39;88.34;91176.13;5057266;28;20054;-87
2021/09/03 06:09:20;;;;;;;9.13;5.25;;;;;;;8.38;88.88;91174.59;5054071;28;20103;-88
2021/09/03 06:11:57;;;;;;;9.02;5.30;;;;;;;8.48;89.12;91173.50;5030660;28;20005;-90
2021/09/03 06:14:29;;;;;;;9.50;5.32;;;;;;;8.58;88.87;91173.19;5028379;28;20088;-87
2021/09/03 06:17:03;;;;;;;10.88;5.95;;;;;;;8.66;89.02;91169.03;5021804;28;20017;-86
2021/09/03 06:19:35;;;;;;;10.15;5.88;;;;;;;8.68;89.22;91169.50;5003428;28;20119;-86
2021/09/03 06:22:11;;;;;;;9.25;5.40;;;;;;;8.77;88.98;91170.25;5003733;28;20158;-87
2021/09/03 06:24:45;;;;;;;8.57;5.38;;;;;;;8.95;88.80;91163.94;5003409;28;20028;-87
2021/09/03 06:27:18;;;;;;;10.98;5.82;;;;;;;8.97;89.51;91166.19;5018839;28;20029;-86
2021/09/03 06:29:49;;;;;;;10.75;5.88;;;;;;;9.14;88.75;91168.75;5019263;28;20032;-87
2021/09/03 06:32:22;;;;;;;9.48;5.72;;;;;;;9.09;88.35;91166.31;5019066;28;20016;-88
2021/09/03 06:34:56;;;;;;;11.10;5.70;;;;;;;9.11;88.86;91171.97;5002665;28;20025;-86
2021/09/03 06:37:29;;;;;;;8.95;5.45;;;;;;;9.16;89.01;91171.81;5035813;28;20108;-87
2021/09/03 06:40:01;;;;;;;11.32;5.55;;;;;;;9.22;88.87;91175.75;5019334;28;20039;-88
2021/09/03 06:42:37;;;;;;;11.10;6.18;;;;;;;9.30;88.73;91174.19;5002807;28;20031;-87
2021/09/03 06:45:09;;;;;;;8.15;5.20;;;;;;;9.42;88.51;91168.31;5003213;28;20405;-86
2021/09/03 06:47:47;;;;;;;10.88;5.40;;;;;;;9.49;88.49;91169.34;5019249;28;20047;-87
2021/09/03 06:50:18;;;;;;;11.55;5.32;;;;;;;9.61;87.52;91167.91;5002952;28;20056;-87
2021/09/03 06:52:57;;;;;;;10.80;4.93;;;;;;;9.73;87.31;91168.00;5002746;28;20119;-86
2021/09/03 06:55:33;;;;;;;9.50;5.40;;;;;;;9.92;87.13;91167.56;5002824;28;20458;-87
2021/09/03 06:58:00;;;;;;;12.80;5.78;;;;;;;10.05;87.04;91164.69;5003173;28;20120;-87
2021/09/03 07:00:30;;;;;;;8.88;5.13;;;;;;;10.21;87.49;91156.31;5018547;28;20024;-88
2021/09/03 07:03:00;;;;;;;9.95;5.15;;;;;;;10.41;87.73;91162.59;5002015;28;20028;-86
2021/09/03 07:05:26;;;;;;;9.55;5.38;;;;;;;10.51;87.88;91162.97;5003165;28;20025;-86
2021/09/03 07:08:01;;;;;;;11.80;5.72;;;;;;;10.66;88.82;91159.00;5018342;28;20482;-85
2021/09/03 07:10:26;;;;;;;8.65;5.30;;;;;;;10.90;87.54;91154.94;5034061;28;20029;-85
2021/09/03 07:12:52;;;;;;;9.05;5.22;;;;;;;11.14;86.16;91160.19;5027442;28;20507;-85
2021/09/03 07:15:17;;;;;;;8.48;4.90;;;;;;;11.29;84.60;91161.38;5035799;28;20385;-86
2021/09/03 07:17:43;;;;;;;8.70;5.65;;;;;;;11.37;83.75;91155.28;5011132;28;20032;-86
2021/09/03 07:20:09;;;;;;;9.30;5.00;;;;;;;11.49;83.41;91170.22;5018729;28;20021;-86
2021/09/03 07:22:34;;;;;;;10.23;5.10;;;;;;;11.61;83.89;91166.81;5033799;28;20037;-85
2021/09/03 07:25:00;;;;;;;10.60;5.07;;;;;;;11.75;84.53;91169.84;5037114;28;20448;-86
2021/09/03 07:27:25;;;;;;;8.48;4.78;;;;;;;11.94;82.44;91159.66;5003394;28;20021;-87
2021/09/03 07:29:50;;;;;;;58.30;6.70;;;;;;;12.11;83.31;91158.59;5020275;28;20024;-86
2021/09/03 07:32:16;;;;;;;15.50;5.40;;;;;;;12.19;83.01;91147.28;5040371;28;20020;-86
2021/09/03 07:34:41;;;;;;;10.52;5.35;;;;;;;12.32;83.16;91158.44;5024272;28;20079;-87
2021/09/03 07:37:07;;;;;;;8.52;5.05;;;;;;;12.32;81.77;91147.97;5023296;28;20031;-85
2021/09/03 07:39:32;;;;;;;8.50;5.18;;;;;;;12.50;82.36;91152.94;5023559;28;20028;-86
2021/09/03 07:41:58;;;;;;;9.23;5.43;;;;;;;12.64;83.84;91153.31;5042370;28;20020;-87
2021/09/03 07:44:23;;;;;;;9.23;5.38;;;;;;;12.86;82.41;91157.22;5028597;28;20028;-86
2021/09/03 07:46:49;;;;;;;10.15;5.00;;;;;;;13.04;79.72;91162.88;5029976;28;20028;-85
2021/09/03 07:49:14;;;;;;;10.07;5.38;;;;;;;13.18;79.15;91160.66;5029091;28;20028;-86
2021/09/03 07:51:40;;;;;;;10.75;5.00;;;;;;;13.28;76.77;91154.91;5027888;28;20488;-86
2021/09/03 07:54:05;;;;;;;9.63;4.72;;;;;;;13.45;75.03;91158.31;5027533;28;20025;-85
2021/09/03 07:56:31;;;;;;;10.25;4.95;;;;;;;13.58;73.05;91152.63;5026661;28;20025;-87
2021/09/03 07:58:57;;;;;;;9.82;5.45;;;;;;;13.70;74.37;91157.00;5026036;28;20024;-87
2021/09/03 08:01:48;;;;;;;9.45;5.13;;;;;;;13.86;74.27;91155.13;5024893;28;20119;-87
2021/09/03 08:04:17;;;;;;;8.95;5.28;;;;;;;14.02;74.55;91154.31;5055257;28;20024;-87
2021/09/03 08:06:42;;;;;;;8.48;4.60;;;;;;;14.20;75.19;91144.94;5044976;28;20115;-87
2021/09/03 08:09:08;;;;;;;10.45;5.75;;;;;;;14.40;75.31;91152.84;5044491;28;20025;-87
2021/09/03 08:11:33;;;;;;;11.18;6.30;;;;;;;14.60;76.50;91145.78;5059273;28;20020;-86
2021/09/03 08:14:00;;;;;;;11.25;5.53;;;;;;;14.86;73.64;91142.47;5041374;28;20070;-87
2021/09/03 08:16:26;;;;;;;9.23;4.80;;;;;;;14.90;67.47;91148.53;5024851;28;20020;-87
2021/09/03 08:18:51;;;;;;;8.35;4.85;;;;;;;15.01;66.24;91149.50;5027689;28;20028;-88
2021/09/03 08:21:17;;;;;;;7.15;4.35;;;;;;;15.12;64.99;91153.03;5028807;28;20054;-88
2021/09/03 08:23:42;;;;;;;11.63;5.05;;;;;;;15.35;65.11;91154.94;5024188;28;20029;-88
2021/09/03 08:26:08;;;;;;;9.77;5.25;;;;;;;15.66;69.70;91167.84;5040544;28;20603;-86
2021/09/03 08:28:33;;;;;;;9.65;4.90;;;;;;;15.82;67.36;91165.06;5024317;28;20020;-87
2021/09/03 08:31:00;;;;;;;8.48;4.80;;;;;;;15.90;66.82;91163.28;5028569;28;20032;-88
2021/09/03 08:33:28;;;;;;;9.00;4.78;;;;;;;16.08;66.10;91166.94;5024695;28;20063;-88
2021/09/03 08:35:54;;;;;;;8.65;4.53;;;;;;;16.20;62.52;91166.72;5029373;28;20028;-88
2021/09/03 08:38:19;;;;;;;7.93;4.72;;;;;;;16.35;64.47;91162.38;5022353;28;20024;-87
2021/09/03 08:40:49;;;;;;;7.25;4.65;;;;;;;16.66;61.85;91168.41;5021148;28;20075;-88
2021/09/03 08:43:21;;;;;;;7.03;4.40;;;;;;;16.75;59.85;91155.78;5021496;28;20392;-86
2021/09/03 08:45:53;;;;;;;8.75;4.47;;;;;;;16.90;58.59;91175.09;5021369;28;20133;-88
2021/09/03 08:48:23;;;;;;;7.43;4.38;;;;;;;16.95;61.68;91159.72;5005471;28;20028;-87
2021/09/03 08:50:54;;;;;;;7.30;4.63;;;;;;;17.10;59.23;91171.19;5024294;28;20096;-88
2021/09/03 08:53:24;;;;;;;7.35;4.82;;;;;;;17.25;58.22;91166.03;5022989;28;20024;-88
2021/09/03 08:55:55;;;;;;;10.25;4.22;;;;;;;17.28;53.83;91170.56;5024152;28;20032;-88
2021/09/03 08:58:21;;;;;;;8.73;3.97;;;;;;;17.28;50.43;91168.72;5023964;28;20037;-88
2021/09/03 09:01:07;;;;;;;8.43;4.57;;;;;;;17.34;48.71;91169.13;5039997;28;20117;-88
2021/09/03 09:03:38;;;;;;;9.10;4.53;;;;;;;17.50;54.29;91171.53;5024336;28;20112;-88
2021/09/03 09:06:06;;;;;;;11.45;4.60;;;;;;;17.78;51.42;91176.31;5040527;28;20050;-89
2021/09/03 09:08:33;;;;;;;7.75;4.65;;;;;;;17.92;54.02;91176.41;5037143;28;20025;-89
2021/09/03 09:10:59;;;;;;;8.93;4.47;;;;;;;17.99;49.55;91178.34;5039221;28;20023;-88
2021/09/03 09:13:28;;;;;;;7.40;4.00;;;;;;;17.99;52.49;91179.09;5050511;28;20024;-89
2021/09/03 09:15:58;;;;;;;8.32;3.97;;;;;;;18.08;52.21;91176.13;5019885;28;20078;-89
2021/09/03 09:18:38;;;;;;;6.00;3.95;;;;;;;18.24;51.30;91179.25;5038255;28;20056;-88
2021/09/03 09:21:17;;;;;;;6.55;4.13;;;;;;;18.48;51.71;91179.72;5024400;28;20498;-88
2021/09/03 09:23:48;;;;;;;7.40;3.63;;;;;;;18.37;44.72;91180.44;5041061;28;20028;-89
2021/09/03 09:26:15;;;;;;;6.35;3.53;;;;;;;18.50;40.67;91178.25;5040989;28;20049;-88
2021/09/03 09:28:43;;;;;;;5.93;3.60;;;;;;;18.49;42.92;91178.63;5019495;28;20032;-88
2021/09/03 09:31:11;;;;;;;6.05;3.50;;;;;;;18.53;42.01;91185.41;5019698;28;20021;-87
2021/09/03 09:33:43;;;;;;;7.75;3.88;;;;;;;18.52;44.08;91181.28;5003554;28;20025;-88
2021/09/03 09:36:10;;;;;;;6.50;3.90;;;;;;;18.61;44.06;91173.00;5023923;28;20031;-89
2021/09/03 09:38:38;;;;;;;6.75;3.70;;;;;;;18.76;47.62;91179.91;5039788;28;20024;-87
2021/09/03 09:41:08;;;;;;;5.55;3.40;;;;;;;18.84;43.27;91170.13;5039941;28;20080;-89
2021/09/03 09:43:39;;;;;;;9.95;4.80;;;;;;;18.87;47.83;91177.31;5023780;28;20116;-88
2021/09/03 09:46:08;;;;;;;9.25;4.05;;;;;;;18.98;48.99;91170.16;5056061;28;20074;-88
2021/09/03 09:48:56;;;;;;;7.88;4.40;;;;;;;18.92;47.61;91176.94;5056119;28;20024;-89
2021/09/03 09:51:28;;;;;;;5.78;3.75;;;;;;;18.86;43.96;91173.13;5032381;28;20040;-89
2021/09/03 09:54:26;;;;;;;7.85;3.97;;;;;;;18.92;45.80;91169.00;5039941;28;20024;-88
2021/09/03 09:56:55;;;;;;;6.43;4.20;;;;;;;19.06;48.29;91160.38;5054613;28;20016;-91
2021/09/03 09:59:27;;;;;;;6.22;4.28;;;;;;;19.12;50.45;91169.44;5064933;28;20016;-91
2021/09/03 10:01:56;;;;;;;5.72;3.92;;;;;;;19.26;52.17;91158.91;5048487;28;20012;-88
2021/09/03 10:04:25;;;;;;;6.85;4.03;;;;;;;19.15;44.46;91168.69;5023755;28;20037;-87
2021/09/03 10:06:54;;;;;;;7.30;4.50;;;;;;;19.32;48.03;91167.22;5023594;28;20492;-88
2021/09/03 10:09:24;;;;;;;7.45;4.03;;;;;;;19.62;44.52;91166.13;5018974;28;20058;-89
2021/09/03 10:11:53;;;;;;;6.40;3.90;;;;;;;19.47;45.54;91168.75;5019131;28;20033;-88
2021/09/03 10:14:26;;;;;;;5.93;3.95;;;;;;;19.49;44.33;91176.28;5019185;28;20055;-88
2021/09/03 10:16:54;;;;;;;6.17;4.10;;;;;;;19.55;46.28;91175.56;5019341;28;20028;-88
2021/09/03 10:19:37;;;;;;;6.22;3.90;;;;;;;19.73;45.66;91180.88;5018721;28;20055;-88
2021/09/03 10:22:19;;;;;;;5.50;3.30;;;;;;;19.75;42.63;91169.91;5044719;23;20049;-87
2021/09/03 10:24:47;;;;;;;7.03;3.78;;;;;;;19.87;43.39;91169.56;4995344;28;20486;-87
2021/09/03 10:27:15;;;;;;;7.47;4.18;;;;;;;19.99;44.23;91166.50;4991804;28;20057;-89
2021/09/03 10:29:46;;;;;;;5.50;3.72;;;;;;;20.11;43.96;91162.72;4978928;28;20509;-88
2021/09/03 10:32:16;;;;;;;5.43;3.83;;;;;;;19.89;45.45;91161.22;4963106;28;20025;-88
2021/09/03 10:35:00;;;;;;;5.32;3.70;;;;;;;19.90;42.91;91162.75;4995490;28;20072;-88
2021/09/03 10:37:39;;;;;;;5.38;3.53;;;;;;;19.71;43.60;91154.06;4979080;28;20022;-88
2021/09/03 10:40:36;;;;;;;4.90;3.40;;;;;;;19.81;43.40;91152.53;4979022;28;20426;-88
2021/09/03 10:43:10;;;;;;;5.70;3.67;;;;;;;19.79;42.57;91147.66;4979054;28;20498;-90
2021/09/03 10:45:47;;;;;;;7.65;3.80;;;;;;;19.93;45.08;91152.16;4963348;28;20116;-88
2021/09/03 10:48:26;;;;;;;7.05;3.75;;;;;;;20.00;42.08;91151.38;4995659;28;20034;-88
2021/09/03 10:50:55;;;;;;;5.35;3.80;;;;;;;19.92;41.93;91148.00;4963101;28;20105;-88
2021/09/03 10:53:24;;;;;;;5.35;3.40;;;;;;;19.99;41.89;91150.63;4995593;28;20030;-89
2021/09/03 10:56:23;;;;;;;5.22;3.45;;;;;;;20.12;43.47;91150.25;4995885;28;20029;-88
2021/09/03 10:58:55;;;;;;;5.45;3.30;;;;;;;20.41;41.25;91153.59;4979478;28;20053;-88
2021/09/03 11:01:25;;;;;;;7.65;3.40;;;;;;;20.32;42.72;91151.34;4978890;28;20030;-87
2021/09/03 11:04:07;;;;;;;6.90;3.80;;;;;;;20.25;42.51;91148.72;4995143;28;20029;-90
2021/09/03 11:06:35;;;;;;;5.43;3.70;;;;;;;20.30;43.68;91145.69;5012664;28;20025;-90
2021/09/03 11:09:17;;;;;;;5.78;3.60;;;;;;;20.30;42.57;91141.13;4979137;28;20116;-90
2021/09/03 11:11:44;;;;;;;5.70;3.60;;;;;;;20.51;43.78;91145.66;5027709;28;20104;-89
2021/09/03 11:14:53;;;;;;;6.57;3.42;;;;;;;20.65;43.98;91136.16;5011354;28;20060;-89
2021/09/03 11:17:19;;;;;;;4.90;3.55;;;;;;;20.43;41.62;91143.38;4997830;28;20110;-91
2021/09/03 11:19:49;;;;;;;5.50;3.70;;;;;;;20.55;44.07;91136.94;4998772;28;20026;-90
2021/09/03 11:22:20;;;;;;;5.43;3.83;;;;;;;20.40;42.58;91134.31;5014485;28;20478;-89
2021/09/03 11:24:50;;;;;;;5.72;3.40;;;;;;;20.11;43.89;91136.28;5015054;28;20049;-90
2021/09/03 11:27:21;;;;;;;6.75;3.60;;;;;;;20.10;44.05;91140.03;5008146;28;20026;-90
2021/09/03 11:30:01;;;;;;;6.10;3.63;;;;;;;20.09;42.74;91135.13;4995324;28;20049;-91
2021/09/03 11:32:36;;;;;;;7.95;3.75;;;;;;;20.18;44.83;91136.25;4994149;28;20033;-90
2021/09/03 11:35:06;;;;;;;5.50;3.70;;;;;;;20.27;43.33;91135.84;4995474;28;20124;-90
2021/09/03 11:37:41;;;;;;;4.63;3.30;;;;;;;20.42;43.40;91137.31;4995295;28;20029;-90
2021/09/03 11:40:12;;;;;;;9.48;4.10;;;;;;;20.69;42.11;91137.63;5010660;28;20022;-88
2021/09/03 11:42:55;;;;;;;6.85;3.90;;;;;;;20.71;41.92;91129.31;4995404;28;20034;-89
2021/09/03 11:45:24;;;;;;;4.93;3.17;;;;;;;20.80;40.42;91127.00;4993782;28;20034;-90
2021/09/03 11:47:54;;;;;;;5.20;3.20;;;;;;;21.03;39.73;91128.41;5011273;28;20545;-91
2021/09/03 11:50:33;;;;;;;8.18;3.60;;;;;;;20.97;40.81;91126.16;4994732;28;20034;-90
2021/09/03 11:53:03;;;;;;;7.40;3.35;;;;;;;20.99;42.88;91123.13;4996502;28;20029;-90
2021/09/03 11:55:38;;;;;;;5.13;3.45;;;;;;;21.03;42.98;91139.00;5011569;28;20030;-88
2021/09/03 12:01:44;;;;;;;6.55;3.33;;;;;;;21.43;40.46;91125.16;4996171;28;20042;-90
2021/09/03 12:04:14;;;;;;;5.03;3.45;;;;;;;21.79;40.92;91124.88;4995067;28;20389;-90
2021/09/03 12:06:39;;;;;;;4.57;3.33;;;;;;;21.70;39.23;91125.34;4994449;28;20030;-90
2021/09/03 12:09:08;;;;;;;5.43;3.13;;;;;;;21.69;39.35;91128.38;4998528;28;20079;-89
2021/09/03 12:11:34;;;;;;;4.90;3.50;;;;;;;21.29;38.69;91124.47;5013802;28;20034;-90